Data for 02/26/2016

Time Sea-Level Adjusted Pressure Absolute Pressure Temperature Relative Humidity Dew Point   
(mb) (inHg) (mb) (inHg) (C) (F) (%) (C) (F)
00:05 1025 30.27 854 25.22 1.3 34.4 48 -8.5 16.6
00:10 1025 30.27 854 25.22 1.4 34.5 47 -8.6 16.5
00:15 1025 30.27 854 25.22 1.3 34.4 48 -8.5 16.6
00:20 1025 30.27 854 25.22 1.2 34.1 48 -8.6 16.6
00:25 1025 30.27 854 25.22 1.2 34.1 48 -8.7 16.3
00:30 1025 30.27 854 25.22 1.4 34.5 47 -8.7 16.3
00:35 1025 30.27 854 25.22 1.6 34.9 46 -8.8 16.2
00:40 1025 30.27 854 25.22 1.8 35.3 45 -8.9 16
00:45 1025 30.27 854 25.22 2 35.5 44 -8.9 16
00:50 1025 30.27 854 25.22 2 35.6 44 -8.9 15.9
00:55 1025 30.27 854 25.22 1.8 35.3 45 -8.9 16.1
01:00 1025 30.27 854 25.22 1.8 35.2 45 -9.1 15.7
01:05 1025 30.27 854 25.22 1.8 35.3 44 -9 15.7
01:10 1025 30.27 854 25.22 1.8 35.2 45 -9 15.8
01:15 1025 30.27 854 25.22 1.6 34.9 46 -8.7 16.3
01:20 1025 30.27 854 25.22 1.6 34.8 46 -8.9 15.9
01:25 1025 30.27 854 25.22 1.7 35 46 -8.8 16.2
01:30 1025 30.27 854 25.22 1.6 34.8 46 -8.8 16.1
01:35 1024 30.24 854 25.22 1.6 34.8 46 -8.9 15.9
01:40 1024 30.24 854 25.22 1.6 34.9 45 -9 15.8
01:45 1024 30.24 854 25.22 1.6 34.9 45 -9.1 15.6
01:50 1024 30.24 854 25.22 1.7 35 45 -9.1 15.6
01:55 1024 30.24 854 25.22 1.7 35.1 44 -9.2 15.5
02:00 1024 30.24 854 25.22 1.7 35.1 44 -9.2 15.5
02:05 1025 30.27 854 25.22 1.6 34.8 47 -8.7 16.4
02:10 1024 30.24 854 25.22 0.9 33.6 48 -8.9 16
02:15 1024 30.24 854 25.22 0.8 33.5 48 -9.1 15.7
02:20 1024 30.24 854 25.22 0.9 33.6 47 -9.1 15.6
02:25 1024 30.24 854 25.22 0.9 33.7 47 -9.2 15.5
02:30 1024 30.24 854 25.22 0.9 33.6 48 -9 15.8
02:35 1024 30.24 854 25.22 0.8 33.5 48 -9 15.8
02:40 1024 30.24 854 25.22 0.8 33.4 48 -9.1 15.6
02:45 1024 30.24 854 25.22 0.9 33.6 47 -9.1 15.6
02:50 1024 30.24 854 25.22 0.9 33.6 47 -9.2 15.5
02:55 1025 30.27 854 25.22 0.8 33.5 47 -9.2 15.5
03:00 1025 30.27 854 25.22 0.6 33.1 49 -8.9 16
03:05 1025 30.27 854 25.22 0.2 32.4 53 -8.3 17.1
03:10 1025 30.27 854 25.22 -0.1 31.9 54 -8.2 17.2
03:15 1025 30.27 854 25.22 -0.3 31.5 55 -8.2 17.2
03:20 1024 30.24 854 25.22 -0.2 31.6 55 -8.2 17.2
03:25 1024 30.24 854 25.22 -0.4 31.3 55 -8.4 16.8
03:30 1024 30.24 854 25.22 -0.2 31.7 53 -8.5 16.6
03:35 1024 30.24 854 25.22 0.2 32.3 52 -8.6 16.5
03:40 1024 30.24 854 25.22 0.2 32.4 52 -8.6 16.5
03:45 1024 30.24 854 25.22 0.2 32.3 51 -8.8 16.2
03:50 1024 30.24 853 25.19 0.2 32.3 51 -8.8 16.2
03:55 1024 30.24 853 25.19 -0.1 31.9 51 -9 15.9
04:00 1024 30.24 853 25.19 0.2 32.4 49 -9.3 15.3
04:05 1024 30.24 853 25.19 0.5 32.9 49 -9 15.8
04:10 1024 30.24 853 25.19 0.5 32.9 49 -9.1 15.7
04:15 1024 30.24 853 25.19 0.5 32.9 49 -8.9 15.9
04:20 1024 30.24 853 25.19 0.2 32.4 51 -8.8 16.1
04:25 1024 30.24 853 25.19 0.1 32.1 51 -8.9 15.9
04:30 1024 30.24 853 25.19 0.1 32.2 50 -9.2 15.4
04:35 1024 30.24 853 25.19 0.6 33 47 -9.4 15
04:40 1024 30.24 853 25.19 0.8 33.4 47 -9.4 15.1
04:45 1024 30.24 853 25.19 0.7 33.3 47 -9.2 15.4
04:50 1024 30.24 853 25.19 0.6 33 47 -9.6 14.8
04:55 1024 30.24 853 25.19 0.9 33.6 47 -9.1 15.5
05:00 1024 30.24 853 25.19 0.6 33 47 -9.4 15
05:05 1024 30.24 853 25.19 0.6 33.1 47 -9.4 15
05:10 1024 30.24 853 25.19 0.7 33.3 47 -9.4 15.1
05:15 1024 30.24 853 25.19 0.6 33.2 47 -9.4 15.1
05:20 1024 30.24 853 25.19 0.4 32.8 49 -9.1 15.6
05:25 1024 30.24 853 25.19 0.3 32.5 48 -9.4 15.1
05:30 1024 30.24 853 25.19 0.4 32.8 48 -9.5 14.9
05:35 1024 30.24 853 25.19 0.5 32.9 47 -9.4 15
05:40 1024 30.24 853 25.19 0.5 32.8 48 -9.4 15
05:45 1024 30.24 853 25.19 0.3 32.6 48 -9.3 15.2
05:50 1024 30.24 853 25.19 0.1 32.1 50 -9.2 15.4
05:55 1024 30.24 853 25.19 -0.3 31.5 51 -9.2 15.5
06:00 1024 30.24 853 25.19 -0.5 31.1 52 -9.2 15.4
06:05 1024 30.24 853 25.19 -0.5 31.2 51 -9.3 15.2
06:10 1024 30.24 853 25.19 -0.2 31.7 50 -9.4 15.1
06:15 1024 30.24 853 25.19 -0.3 31.5 51 -9.2 15.5
06:20 1024 30.24 853 25.19 -0.5 31.1 52 -9.2 15.5
06:25 1024 30.24 853 25.19 -0.5 31.1 51 -9.4 15
06:30 1024 30.24 853 25.19 -0.4 31.3 52 -9.2 15.5
06:35 1024 30.24 853 25.19 -0.6 30.8 53 -9.2 15.5
06:40 1024 30.24 853 25.19 -0.7 30.7 52 -9.3 15.3
06:45 1024 30.24 853 25.19 -0.6 31 51 -9.5 15
06:50 1024 30.24 854 25.22 -0.4 31.3 51 -9.4 15
06:55 1024 30.24 854 25.22 -0.3 31.4 52 -9 15.8
07:00 1024 30.24 853 25.19 -0.8 30.5 53 -9.2 15.5
07:05 1024 30.24 853 25.19 -1.1 30.1 54 -9.2 15.5
07:10 1024 30.24 853 25.19 -1.4 29.5 56 -9.1 15.6
07:15 1024 30.24 854 25.22 -1.5 29.4 56 -9.3 15.3
07:20 1024 30.24 853 25.19 -1.3 29.6 54 -9.4 15
07:25 1024 30.24 854 25.22 -1.2 29.8 54 -9.3 15.3
07:30 1024 30.24 854 25.22 -1.4 29.6 54 -9.5 15
07:35 1024 30.24 854 25.22 -1.4 29.4 53 -9.8 14.4
07:40 1024 30.24 854 25.22 -1.1 30 52 -9.7 14.6
07:45 1024 30.24 853 25.19 -1.4 29.5 55 -9.3 15.3
07:50 1024 30.24 853 25.19 -2 28.4 57 -9.4 15
07:55 1024 30.24 853 25.19 -2 28.3 56 -9.7 14.5
08:00 1024 30.24 853 25.19 -1.4 29.5 53 -9.7 14.5
08:05 1024 30.24 853 25.19 -1.2 29.9 53 -9.7 14.6
08:10 1024 30.24 853 25.19 -1.3 29.6 55 -9.3 15.3
08:15 1024 30.24 853 25.19 -1.9 28.5 57 -9.3 15.3
08:20 1024 30.24 853 25.19 -2.3 27.9 58 -9.5 14.9
08:25 1024 30.24 853 25.19 -2.2 28 59 -9.3 15.2
08:30 1024 30.24 853 25.19 -2.2 28.1 58 -9.3 15.3
08:35 1024 30.24 853 25.19 -2 28.5 56 -9.6 14.7
08:40 1024 30.24 853 25.19 -1.6 29.1 55 -9.4 15.1
08:45 1024 30.24 853 25.19 -1.5 29.3 54 -9.5 14.8
08:50 1024 30.24 853 25.19 -1.4 29.5 53 -9.7 14.5
08:55 1024 30.24 853 25.19 -0.9 30.3 52 -9.7 14.6
09:00 1024 30.24 853 25.19 -0.8 30.6 52 -9.5 14.9
09:05 1024 30.24 853 25.19 -0.6 30.9 50 -9.7 14.5
09:10 1024 30.24 853 25.19 -0.3 31.5 50 -9.5 14.9
09:15 1024 30.24 853 25.19 -0.1 31.9 50 -9.4 15.2
09:20 1024 30.24 853 25.19 0.2 32.3 48 -9.5 14.8
09:25 1024 30.24 853 25.19 0.6 33 48 -9.3 15.3
09:30 1024 30.24 853 25.19 0.6 33.2 49 -9 15.8
09:35 1024 30.24 853 25.19 0.8 33.5 49 -8.8 16.1
09:40 1024 30.24 853 25.19 1 33.9 49 -8.5 16.7
09:45 1024 30.24 853 25.19 1.3 34.3 47 -8.7 16.3
09:50 1024 30.24 853 25.19 1.6 34.9 46 -8.8 16.2
09:55 1024 30.24 853 25.19 2 35.6 45 -8.8 16.1
10:00 1024 30.24 853 25.19 2.4 36.3 42 -9.4 15.1
10:05 1024 30.24 853 25.19 2.9 37.2 42 -8.7 16.3
10:10 1024 30.24 853 25.19 3.4 38.1 41 -8.7 16.4
10:15 1024 30.24 853 25.19 3.7 38.7 40 -8.6 16.5
10:20 1024 30.24 853 25.19 4.4 39.9 37 -9.2 15.4
10:25 1024 30.24 853 25.19 5 41 35 -9.2 15.5
10:30 1024 30.24 853 25.19 5.8 42.4 33 -9.3 15.3
10:35 1024 30.24 853 25.19 6.2 43.1 32 -9.5 14.9
10:40 1024 30.24 853 25.19 6.1 42.9 32 -9.4 15.1
10:45 1024 30.24 853 25.19 5.9 42.6 32 -9.4 15
10:50 1024 30.24 853 25.19 5.8 42.5 32 -9.4 15
10:55 1024 30.24 853 25.19 6 42.8 32 -9.5 14.9
11:00 1024 30.24 853 25.19 6.6 44 30 -9.9 14.3
11:05 1024 30.24 853 25.19 6.8 44.3 30 -9.5 14.9
11:10 1024 30.24 853 25.19 7 44.5 29 -10 14
11:15 1024 30.24 853 25.19 7.4 45.2 29 -9.7 14.6
11:20 1024 30.24 853 25.19 7.3 45.2 28 -9.9 14.2
11:25 1024 30.24 853 25.19 7.7 45.9 28 -9.5 14.9
11:30 1024 30.24 853 25.19 7.6 45.8 29 -9.2 15.5
11:35 1024 30.24 853 25.19 7.4 45.3 29 -9.5 15
11:40 1023 30.21 853 25.19 8 46.5 30 -8.5 16.7
11:45 1023 30.21 853 25.19 8.1 46.5 30 -8.4 16.9
11:50 1023 30.21 852 25.16 7.6 45.7 31 -8.4 16.8
11:55 1023 30.21 852 25.16 7.8 46.1 31 -8.3 17
12:00 1023 30.21 852 25.16 7.9 46.2 30 -8.5 16.6
12:05 1023 30.21 852 25.16 8.3 47 30 -8.4 16.9
12:10 1023 30.21 852 25.16 9.1 48.4 28 -8.2 17.2
12:15 1023 30.21 852 25.16 9 48.2 29 -7.9 17.7
12:20 1023 30.21 852 25.16 8.9 48 28 -8.5 16.7
12:25 1023 30.21 852 25.16 9.7 49.4 27 -8.4 16.9
12:30 1023 30.21 852 25.16 10 50 26 -8.9 16
12:35 1023 30.21 852 25.16 10.4 50.7 25 -9 15.8
12:40 1023 30.21 852 25.16 10.2 50.3 26 -8.7 16.4
12:45 1023 30.21 852 25.16 10.2 50.4 25 -8.9 16.1
12:50 1023 30.21 852 25.16 9.9 49.8 25 -9.5 15
12:55 1023 30.21 852 25.16 10.2 50.4 23 -9.8 14.3
13:00 1023 30.21 852 25.16 10.4 50.6 23 -9.7 14.5
13:05 1023 30.21 852 25.16 10.5 50.8 25 -8.7 16.3
13:10 1023 30.21 852 25.16 10.3 50.6 25 -8.9 16
13:15 1023 30.21 852 25.16 10.3 50.6 26 -8.5 16.7
13:20 1023 30.21 852 25.16 10.2 50.3 27 -8.1 17.5
13:25 1023 30.21 852 25.16 10.4 50.7 26 -8.2 17.3
13:30 1023 30.21 852 25.16 10.8 51.5 27 -7.6 18.2
13:35 1023 30.21 852 25.16 11.1 52 27 -7.4 18.8
13:40 1023 30.21 852 25.16 11.1 51.9 27 -7.2 19
13:45 1023 30.21 852 25.16 9.9 49.9 28 -7.9 17.7
13:50 1023 30.21 852 25.16 10.1 50.2 29 -7.2 19
13:55 1023 30.21 852 25.16 10.8 51.5 28 -7.1 19.2
14:00 1022 30.18 852 25.16 10.5 51 28 -7 19.4
14:05 1022 30.18 852 25.16 10.4 50.7 28 -7.4 18.7
14:10 1022 30.18 851 25.13 11 51.7 26 -7.7 18.1
14:15 1022 30.18 851 25.13 11.6 52.9 25 -8 17.7
14:20 1022 30.18 851 25.13 12 53.5 24 -7.9 17.7
14:25 1022 30.18 851 25.13 12.3 54.1 25 -7 19.4
14:30 1022 30.18 851 25.13 11.9 53.3 24 -8 17.6
14:35 1022 30.18 851 25.13 12.6 54.7 24 -7.2 19.1
14:40 1022 30.18 851 25.13 11.7 53.1 24 -8 17.6
14:45 1021 30.15 851 25.13 11.3 52.3 24 -8.4 16.9
14:50 1021 30.15 851 25.13 11.8 53.3 23 -8.5 16.7
14:55 1021 30.15 851 25.13 12.6 54.6 22 -8.8 16.1
15:00 1021 30.15 850 25.1 13 55.4 21 -8.8 16.2
15:05 1021 30.15 850 25.1 13.2 55.8 20 -9.1 15.7
15:10 1021 30.15 850 25.1 13.5 56.2 20 -9.1 15.7
15:15 1021 30.15 850 25.1 12.5 54.5 21 -9.4 15.2
15:20 1021 30.15 850 25.1 12.6 54.6 21 -9 15.8
15:25 1021 30.15 850 25.1 12.7 54.8 21 -9.1 15.6
15:30 1021 30.15 850 25.1 12.4 54.4 21 -9.5 14.8
15:35 1021 30.15 850 25.1 12.7 54.9 21 -8.9 15.9
15:40 1020 30.12 850 25.1 13.9 56.9 20 -8.7 16.3
15:45 1020 30.12 850 25.1 13.6 56.5 22 -7.9 17.7
15:50 1020 30.12 849 25.07 12.9 55.2 21 -9 15.8
15:55 1020 30.12 849 25.07 13.1 55.6 21 -8.8 16.2
16:00 1020 30.12 849 25.07 14 57.2 19 -9.3 15.2
16:05 1020 30.12 849 25.07 14.9 58.8 18 -9.2 15.5
16:10 1020 30.12 849 25.07 14.9 58.9 19 -8.7 16.3
16:15 1020 30.12 849 25.07 15 58.9 18 -9.2 15.5
16:20 1020 30.12 849 25.07 15.3 59.6 18 -9.1 15.7
16:25 1020 30.12 849 25.07 15.1 59.1 18 -9 15.8
16:30 1020 30.12 849 25.07 14.8 58.7 18 -9.5 14.8
16:35 1020 30.12 849 25.07 14.6 58.3 21 -7.7 18.2
16:40 1020 30.12 849 25.07 14.2 57.6 21 -7.8 18
16:45 1019 30.09 849 25.07 14.2 57.6 20 -8.5 16.6
16:50 1019 30.09 848 25.04 14.8 58.7 19 -8.6 16.5
16:55 1019 30.09 848 25.04 15.1 59.2 18 -8.8 16.2
17:00 1019 30.09 848 25.04 15 58.9 19 -8.5 16.8
17:05 1019 30.09 848 25.04 15.2 59.4 19 -8 17.6
17:10 1019 30.09 848 25.04 15 59 17 -9.6 14.8
17:15 1019 30.09 848 25.04 15.2 59.3 17 -9.3 15.2
17:20 1019 30.09 848 25.04 15.4 59.8 19 -8.2 17.3
17:25 1019 30.09 848 25.04 15.2 59.4 18 -8.9 15.9
17:30 1019 30.09 848 25.04 14.6 58.2 21 -7.3 18.9
17:35 1019 30.09 848 25.04 13.9 56.9 22 -7.8 18
17:40 1019 30.09 848 25.04 13.6 56.5 23 -7.2 19
17:45 1019 30.09 848 25.04 13.3 55.9 23 -7.3 18.8
17:50 1019 30.09 848 25.04 13.3 55.9 24 -6.7 20
17:55 1019 30.09 848 25.04 13 55.4 25 -6.5 20.3
18:00 1018 30.06 848 25.04 12.7 54.8 25 -6.6 20.1
18:05 1018 30.06 848 25.04 12.6 54.6 25 -7 19.3
18:10 1018 30.06 848 25.04 12.6 54.6 25 -7.1 19.3
18:15 1018 30.06 847 25.01 12.5 54.6 24 -7.4 18.6
18:20 1018 30.06 847 25.01 12.8 55.1 24 -7.4 18.7
18:25 1018 30.06 847 25.01 12.9 55.1 24 -7.2 19.1
18:30 1018 30.06 847 25.01 12.8 55 24 -7.5 18.5
18:35 1018 30.06 847 25.01 12.7 54.8 24 -7.4 18.7
18:40 1018 30.06 847 25.01 12.5 54.5 24 -7.5 18.6
18:45 1018 30.06 847 25.01 12.3 54.1 24 -7.5 18.5
18:50 1018 30.06 847 25.01 12.1 53.7 26 -7 19.4
18:55 1018 30.06 847 25.01 11.7 53 27 -6.6 20.2
19:00 1018 30.06 847 25.01 11.3 52.3 27 -7.1 19.2
19:05 1018 30.06 847 25.01 10.9 51.5 27 -7.3 18.8
19:10 1018 30.06 847 25.01 10.6 51.1 27 -7.4 18.7
19:15 1018 30.06 847 25.01 10.4 50.7 28 -7.3 18.9
19:20 1018 30.06 847 25.01 9.8 49.7 30 -7 19.4
19:25 1018 30.06 847 25.01 9.1 48.4 31 -7.2 19.1
19:30 1018 30.06 847 25.01 8.5 47.3 31 -7.6 18.4
19:35 1018 30.06 847 25.01 8.2 46.7 32 -7.5 18.5
19:40 1018 30.06 847 25.01 8.1 46.6 31 -7.9 17.7
19:45 1018 30.06 847 25.01 8.4 47.1 33 -7 19.3
19:50 1018 30.06 847 25.01 7.9 46.2 35 -6.6 20.1
19:55 1018 30.06 847 25.01 7.5 45.5 36 -6.8 19.8
20:00 1017 30.03 847 25.01 7.2 44.9 33 -8 17.7
20:05 1017 30.03 847 25.01 7.1 44.8 34 -7.8 17.9
20:10 1017 30.03 847 25.01 6.8 44.2 35 -7.6 18.4
20:15 1017 30.03 846 24.98 6.6 43.9 35 -7.7 18.1
20:20 1017 30.03 846 24.98 6.7 44 34 -8.2 17.3
20:25 1017 30.03 846 24.98 6.9 44.5 34 -8 17.5
20:30 1017 30.03 846 24.98 6.8 44.3 35 -7.6 18.4
20:35 1017 30.03 846 24.98 6.7 44 35 -7.8 18
20:40 1017 30.03 846 24.98 6.8 44.3 34 -7.9 17.8
20:45 1017 30.03 846 24.98 6.9 44.3 35 -7.6 18.2
20:50 1017 30.03 846 24.98 6.8 44.2 35 -7.5 18.5
20:55 1017 30.03 846 24.98 6.8 44.3 36 -7.3 18.8
21:00 1017 30.03 846 24.98 6.8 44.2 35 -7.5 18.4
21:05 1017 30.03 846 24.98 6.8 44.2 36 -7.4 18.7
21:10 1017 30.03 846 24.98 6.5 43.7 37 -7.2 19.1
21:15 1017 30.03 846 24.98 6.4 43.5 37 -7.3 18.9
21:20 1017 30.03 846 24.98 6.5 43.8 36 -7.5 18.5
21:25 1017 30.03 846 24.98 6.4 43.6 37 -7.3 18.8
21:30 1017 30.03 846 24.98 6.3 43.4 36 -7.5 18.5
21:35 1017 30.03 846 24.98 6.4 43.5 37 -7.4 18.7
21:40 1017 30.03 846 24.98 6.1 43 37 -7.5 18.5
21:45 1017 30.03 846 24.98 6.5 43.8 36 -7.5 18.4
21:50 1017 30.03 846 24.98 6.5 43.6 36 -7.7 18.2
21:55 1017 30.03 846 24.98 6.5 43.6 35 -7.8 18
22:00 1017 30.03 846 24.98 6.6 43.9 35 -7.8 17.9
22:05 1017 30.03 846 24.98 6.5 43.8 35 -7.8 17.9
22:10 1017 30.03 846 24.98 6.3 43.4 36 -7.5 18.5
22:15 1017 30.03 846 24.98 6.4 43.5 35 -7.8 17.9
22:20 1017 30.03 846 24.98 6.4 43.6 35 -8.1 17.4
22:25 1017 30.03 846 24.98 6.4 43.5 35 -7.8 17.9
22:30 1017 30.03 846 24.98 6 42.8 36 -8 17.7
22:35 1017 30.03 846 24.98 6 42.8 36 -8 17.5
22:40 1017 30.03 846 24.98 6.1 42.9 36 -8 17.6
22:45 1016 30 846 24.98 5.8 42.4 37 -7.9 17.8
22:50 1017 30.03 846 24.98 5.6 42.1 37 -7.9 17.8
22:55 1017 30.03 846 24.98 5.5 41.9 37 -8.1 17.5
23:00 1017 30.03 846 24.98 5.6 42.2 37 -7.8 17.9
23:05 1017 30.03 846 24.98 5.5 41.9 38 -7.8 17.9
23:10 1017 30.03 846 24.98 5.4 41.7 37 -8.2 17.2
23:15 1017 30.03 846 24.98 5.3 41.5 38 -7.8 17.9
23:20 1017 30.03 846 24.98 4.6 40.3 38 -8.6 16.5
23:25 1017 30.03 846 24.98 5.3 41.5 36 -8.4 16.8
23:30 1016 30 846 24.98 5.5 41.8 38 -7.7 18.2
23:35 1016 30 846 24.98 4.8 40.6 39 -8 17.7
23:40 1016 30 846 24.98 4.8 40.6 40 -7.8 18
23:45 1016 30 846 24.98 5 41 37 -8.4 16.8
23:50 1016 30 846 24.98 5.4 41.7 37 -8.3 17.1
23:55 1016 30 845 24.95 5.5 41.9 36 -8.3 17.1
24:00 1016 30 846 24.98 5.4 41.8 37 -8 17.6